sensor_id;sensor_type;location;lat;lon;timestamp;pressure;altitude;pressure_sealevel;temperature;humidity
34297;BME280;20564;42.902;25.336;2024-01-10T00:01:04;98690.50;;;-5.69;97.67
34297;BME280;20564;42.902;25.336;2024-01-10T00:03:32;98693.03;;;-5.67;98.39
34297;BME280;20564;42.902;25.336;2024-01-10T00:05:59;98694.75;;;-5.71;97.88
34297;BME280;20564;42.902;25.336;2024-01-10T00:08:26;98693.06;;;-5.70;97.68
34297;BME280;20564;42.902;25.336;2024-01-10T00:10:53;98689.66;;;-5.74;97.12
34297;BME280;20564;42.902;25.336;2024-01-10T00:13:21;98697.34;;;-5.77;97.83
34297;BME280;20564;42.902;25.336;2024-01-10T00:15:49;98692.22;;;-5.83;98.70
34297;BME280;20564;42.902;25.336;2024-01-10T00:18:16;98699.09;;;-5.88;99.10
34297;BME280;20564;42.902;25.336;2024-01-10T00:20:43;98699.06;;;-5.85;99.77
34297;BME280;20564;42.902;25.336;2024-01-10T00:23:10;98703.34;;;-5.86;99.17
34297;BME280;20564;42.902;25.336;2024-01-10T00:25:37;98709.31;;;-5.85;99.19
34297;BME280;20564;42.902;25.336;2024-01-10T00:28:05;98706.78;;;-5.88;99.27
34297;BME280;20564;42.902;25.336;2024-01-10T00:30:32;98711.03;;;-5.90;99.42
34297;BME280;20564;42.902;25.336;2024-01-10T00:32:59;98705.91;;;-5.90;99.06
34297;BME280;20564;42.902;25.336;2024-01-10T00:35:26;98711.94;;;-5.97;98.74
34297;BME280;20564;42.902;25.336;2024-01-10T00:37:53;98713.66;;;-5.98;97.32
34297;BME280;20564;42.902;25.336;2024-01-10T00:40:19;98717.91;;;-6.04;97.23
34297;BME280;20564;42.902;25.336;2024-01-10T00:42:47;98722.22;;;-6.10;97.20
34297;BME280;20564;42.902;25.336;2024-01-10T00:45:16;98714.50;;;-6.16;98.45
34297;BME280;20564;42.902;25.336;2024-01-10T00:47:42;98711.97;;;-6.20;98.12
34297;BME280;20564;42.902;25.336;2024-01-10T00:50:09;98715.38;;;-6.24;97.47
34297;BME280;20564;42.902;25.336;2024-01-10T00:52:37;98711.13;;;-6.28;97.30
34297;BME280;20564;42.902;25.336;2024-01-10T00:55:05;98705.09;;;-6.37;98.12
34297;BME280;20564;42.902;25.336;2024-01-10T00:57:32;98703.41;;;-6.32;98.42
34297;BME280;20564;42.902;25.336;2024-01-10T00:59:59;98704.28;;;-6.25;98.29
34297;BME280;20564;42.902;25.336;2024-01-10T01:02:27;98698.28;;;-6.38;96.95
34297;BME280;20564;42.902;25.336;2024-01-10T01:04:56;98698.28;;;-6.45;96.91
34297;BME280;20564;42.902;25.336;2024-01-10T01:07:23;98699.97;;;-6.52;97.13
34297;BME280;20564;42.902;25.336;2024-01-10T01:09:50;98689.72;;;-6.60;96.31
34297;BME280;20564;42.902;25.336;2024-01-10T01:12:17;98688.88;;;-6.71;96.27
34297;BME280;20564;42.902;25.336;2024-01-10T01:14:44;98687.16;;;-6.66;96.83
34297;BME280;20564;42.902;25.336;2024-01-10T01:17:10;98690.56;;;-6.82;93.06
34297;BME280;20564;42.902;25.336;2024-01-10T01:19:37;98691.38;;;-7.00;94.76
34297;BME280;20564;42.902;25.336;2024-01-10T01:22:04;98691.34;;;-7.11;95.51
34297;BME280;20564;42.902;25.336;2024-01-10T01:24:31;98691.34;;;-7.05;97.52
34297;BME280;20564;42.902;25.336;2024-01-10T01:26:58;98697.34;;;-6.96;97.21
34297;BME280;20564;42.902;25.336;2024-01-10T01:29:25;98695.66;;;-6.93;98.13
34297;BME280;20564;42.902;25.336;2024-01-10T01:31:52;98693.06;;;-7.02;95.25
34297;BME280;20564;42.902;25.336;2024-01-10T01:34:20;98694.72;;;-7.18;94.23
34297;BME280;20564;42.902;25.336;2024-01-10T01:36:48;98688.69;;;-7.38;95.70
34297;BME280;20564;42.902;25.336;2024-01-10T01:39:15;98698.03;;;-7.45;95.65
34297;BME280;20564;42.902;25.336;2024-01-10T01:41:42;98693.78;;;-7.44;96.92
34297;BME280;20564;42.902;25.336;2024-01-10T01:44:09;98692.88;;;-7.53;94.40
34297;BME280;20564;42.902;25.336;2024-01-10T01:46:36;98696.28;;;-7.57;94.65
34297;BME280;20564;42.902;25.336;2024-01-10T01:49:04;98689.38;;;-7.68;95.33
34297;BME280;20564;42.902;25.336;2024-01-10T01:51:32;98684.25;;;-7.71;96.65
34297;BME280;20564;42.902;25.336;2024-01-10T01:54:07;98685.13;;;-7.65;96.04
34297;BME280;20564;42.902;25.336;2024-01-10T01:56:42;98681.69;;;-7.73;93.82
34297;BME280;20564;42.902;25.336;2024-01-10T01:59:11;98678.19;;;-7.90;94.55
34297;BME280;20564;42.902;25.336;2024-01-10T02:01:39;98672.19;;;-7.94;96.72
34297;BME280;20564;42.902;25.336;2024-01-10T02:04:07;98679.00;;;-7.99;96.90
34297;BME280;20564;42.902;25.336;2024-01-10T02:06:34;98668.81;;;-7.91;95.99
34297;BME280;20564;42.902;25.336;2024-01-10T02:09:01;98669.66;;;-7.94;95.13
34297;BME280;20564;42.902;25.336;2024-01-10T02:15:59;98650.81;;;-8.10;95.45
34297;BME280;20564;42.902;25.336;2024-01-10T02:18:26;98645.75;;;-8.07;94.66
34297;BME280;20564;42.902;25.336;2024-01-10T11:04:00;98588.97;;;-2.54;76.71
34297;BME280;20564;42.902;25.336;2024-01-10T11:06:28;98586.97;;;-2.36;74.93
34297;BME280;20564;42.902;25.336;2024-01-10T11:09:06;98578.00;;;-2.17;75.16
34297;BME280;20564;42.902;25.336;2024-01-10T11:12:00;98575.13;;;-2.00;74.14
34297;BME280;20564;42.902;25.336;2024-01-10T11:25:54;98568.31;;;-1.59;71.02
34297;BME280;20564;42.902;25.336;2024-01-10T11:28:25;98557.81;;;-1.52;69.85
34297;BME280;20564;42.902;25.336;2024-01-10T11:30:53;98557.75;;;-1.49;69.85
34297;BME280;20564;42.902;25.336;2024-01-10T11:33:39;98555.84;;;-1.40;70.91
34297;BME280;20564;42.902;25.336;2024-01-10T11:36:18;98554.94;;;-1.38;69.37
34297;BME280;20564;42.902;25.336;2024-01-10T11:41:38;98548.66;;;-1.26;67.63
34297;BME280;20564;42.902;25.336;2024-01-10T11:46:49;98548.25;;;-1.08;66.50
34297;BME280;20564;42.902;25.336;2024-01-10T11:49:19;98541.41;;;-1.10;66.77
34297;BME280;20564;42.902;25.336;2024-01-10T11:51:48;98542.88;;;-0.99;68.21
34297;BME280;20564;42.902;25.336;2024-01-10T11:54:41;98533.22;;;-0.92;64.99
34297;BME280;20564;42.902;25.336;2024-01-10T11:57:22;98533.69;;;-0.75;65.61
34297;BME280;20564;42.902;25.336;2024-01-10T11:59:54;98527.72;;;-0.77;63.96
34297;BME280;20564;42.902;25.336;2024-01-10T12:02:22;98524.81;;;-0.64;64.49
34297;BME280;20564;42.902;25.336;2024-01-10T12:04:54;98525.63;;;-0.62;62.58
34297;BME280;20564;42.902;25.336;2024-01-10T12:07:22;98520.53;;;-0.65;63.84
34297;BME280;20564;42.902;25.336;2024-01-10T12:09:53;98517.06;;;-0.64;64.44
34297;BME280;20564;42.902;25.336;2024-01-10T12:12:21;98516.09;;;-0.60;64.47
34297;BME280;20564;42.902;25.336;2024-01-10T12:14:50;98507.28;;;-0.53;64.47
34297;BME280;20564;42.902;25.336;2024-01-10T12:17:18;98500.81;;;-0.37;63.51
34297;BME280;20564;42.902;25.336;2024-01-10T12:19:46;98500.88;;;-0.38;60.36
34297;BME280;20564;42.902;25.336;2024-01-10T12:22:18;98504.75;;;-0.55;60.50
34297;BME280;20564;42.902;25.336;2024-01-10T12:24:49;98501.06;;;-0.46;59.60
34297;BME280;20564;42.902;25.336;2024-01-10T12:27:18;98502.28;;;-0.59;59.34
34297;BME280;20564;42.902;25.336;2024-01-10T12:29:50;98510.09;;;-0.62;61.19
34297;BME280;20564;42.902;25.336;2024-01-10T12:32:20;98505.88;;;-0.65;60.43
34297;BME280;20564;42.902;25.336;2024-01-10T12:34:59;98498.97;;;-0.66;59.79
34297;BME280;20564;42.902;25.336;2024-01-10T12:37:26;98500.56;;;-0.60;59.75
34297;BME280;20564;42.902;25.336;2024-01-10T12:39:53;98499.53;;;-0.53;55.17
34297;BME280;20564;42.902;25.336;2024-01-10T12:42:20;98485.63;;;-0.49;55.79
34297;BME280;20564;42.902;25.336;2024-01-10T12:44:47;98492.59;;;-0.51;54.49
34297;BME280;20564;42.902;25.336;2024-01-10T12:47:22;98492.25;;;-0.71;56.63
34297;BME280;20564;42.902;25.336;2024-01-10T12:49:51;98491.41;;;-0.74;57.50
34297;BME280;20564;42.902;25.336;2024-01-10T12:52:18;98492.25;;;-0.71;58.24
34297;BME280;20564;42.902;25.336;2024-01-10T12:54:50;98492.97;;;-0.66;59.29
34297;BME280;20564;42.902;25.336;2024-01-10T12:57:17;98498.88;;;-0.61;57.75
34297;BME280;20564;42.902;25.336;2024-01-10T12:59:45;98496.38;;;-0.64;57.73
34297;BME280;20564;42.902;25.336;2024-01-10T13:02:12;98491.22;;;-0.64;57.66
34297;BME280;20564;42.902;25.336;2024-01-10T13:04:39;98500.56;;;-0.60;58.47
34297;BME280;20564;42.902;25.336;2024-01-10T13:07:06;98498.84;;;-0.60;58.19
34297;BME280;20564;42.902;25.336;2024-01-10T13:09:33;98496.06;;;-0.52;58.34
34297;BME280;20564;42.902;25.336;2024-01-10T13:12:03;98499.53;;;-0.53;56.08
34297;BME280;20564;42.902;25.336;2024-01-10T13:14:30;98503.16;;;-0.60;57.39
34297;BME280;20564;42.902;25.336;2024-01-10T13:16:58;98501.47;;;-0.61;56.48
34297;BME280;20564;42.902;25.336;2024-01-10T13:19:26;98502.94;;;-0.51;55.09
34297;BME280;20564;42.902;25.336;2024-01-10T13:21:53;98506.66;;;-0.61;55.46
34297;BME280;20564;42.902;25.336;2024-01-10T13:24:20;98503.94;;;-0.57;56.51
34297;BME280;20564;42.902;25.336;2024-01-10T13:26:47;98507.56;;;-0.64;57.02
34297;BME280;20564;42.902;25.336;2024-01-10T13:29:15;98509.94;;;-0.56;58.10
34297;BME280;20564;42.902;25.336;2024-01-10T13:31:43;98510.97;;;-0.62;55.07
34297;BME280;20564;42.902;25.336;2024-01-10T13:34:10;98511.19;;;-0.71;53.36
34297;BME280;20564;42.902;25.336;2024-01-10T13:36:40;98506.22;;;-0.79;49.79
34297;BME280;20564;42.902;25.336;2024-01-10T13:39:08;98502.13;;;-0.87;51.24
34297;BME280;20564;42.902;25.336;2024-01-10T13:41:35;98507.47;;;-0.95;52.01
34297;BME280;20564;42.902;25.336;2024-01-10T13:44:03;98498.84;;;-0.94;52.92
34297;BME280;20564;42.902;25.336;2024-01-10T13:46:31;98497.94;;;-0.91;53.63
34297;BME280;20564;42.902;25.336;2024-01-10T13:48:58;98509.25;;;-0.97;50.81
34297;BME280;20564;42.902;25.336;2024-01-10T13:51:25;98497.41;;;-1.06;49.52
34297;BME280;20564;42.902;25.336;2024-01-10T13:53:52;98500.06;;;-1.10;49.81
34297;BME280;20564;42.902;25.336;2024-01-10T13:56:19;98502.66;;;-1.10;49.93
34297;BME280;20564;42.902;25.336;2024-01-10T13:58:46;98505.31;;;-1.13;50.75
34297;BME280;20564;42.902;25.336;2024-01-10T14:01:13;98509.81;;;-1.22;51.10
34297;BME280;20564;42.902;25.336;2024-01-10T14:03:41;98497.06;;;-1.28;52.58
34297;BME280;20564;42.902;25.336;2024-01-10T14:06:08;98504.88;;;-1.31;52.47
34297;BME280;20564;42.902;25.336;2024-01-10T14:08:35;98504.94;;;-1.34;53.96
34297;BME280;20564;42.902;25.336;2024-01-10T14:11:04;98498.97;;;-1.37;56.46
34297;BME280;20564;42.902;25.336;2024-01-10T14:13:31;98504.88;;;-1.31;58.99
34297;BME280;20564;42.902;25.336;2024-01-10T14:15:58;98501.44;;;-1.31;62.15
34297;BME280;20564;42.902;25.336;2024-01-10T14:18:24;98496.34;;;-1.36;65.36
34297;BME280;20564;42.902;25.336;2024-01-10T14:20:51;98506.66;;;-1.34;67.04
34297;BME280;20564;42.902;25.336;2024-01-10T14:23:18;98499.91;;;-1.40;68.84
34297;BME280;20564;42.902;25.336;2024-01-10T14:25:47;98500.84;;;-1.44;70.22
34297;BME280;20564;42.902;25.336;2024-01-10T14:28:17;98505.22;;;-1.46;72.17
34297;BME280;20564;42.902;25.336;2024-01-10T14:30:44;98507.03;;;-1.51;72.67
34297;BME280;20564;42.902;25.336;2024-01-10T14:33:11;98508.03;;;-1.57;73.78
34297;BME280;20564;42.902;25.336;2024-01-10T14:35:40;98502.19;;;-1.66;75.29
34297;BME280;20564;42.902;25.336;2024-01-10T14:38:07;98497.25;;;-1.77;77.09
34297;BME280;20564;42.902;25.336;2024-01-10T14:40:35;98501.75;;;-1.87;79.23
34297;BME280;20564;42.902;25.336;2024-01-10T14:43:03;98506.22;;;-1.95;80.69
34297;BME280;20564;42.902;25.336;2024-01-10T14:45:30;98503.84;;;-2.06;80.87
34297;BME280;20564;42.902;25.336;2024-01-10T14:47:56;98507.50;;;-2.16;81.57
34297;BME280;20564;42.902;25.336;2024-01-10T14:50:23;98501.69;;;-2.26;82.19
34297;BME280;20564;42.902;25.336;2024-01-10T14:52:51;98498.44;;;-2.37;83.43
34297;BME280;20564;42.902;25.336;2024-01-10T14:55:18;98489.13;;;-2.46;83.37
34297;BME280;20564;42.902;25.336;2024-01-10T14:57:45;98498.75;;;-2.52;83.32
34297;BME280;20564;42.902;25.336;2024-01-10T15:00:14;98490.25;;;-2.60;83.86
34297;BME280;20564;42.902;25.336;2024-01-10T15:02:41;98492.19;;;-2.70;84.26
34297;BME280;20564;42.902;25.336;2024-01-10T15:05:11;98497.47;;;-2.79;84.94
34297;BME280;20564;42.902;25.336;2024-01-10T15:07:38;98504.50;;;-2.89;85.20
34297;BME280;20564;42.902;25.336;2024-01-10T15:10:06;98504.75;;;-3.03;86.48
34297;BME280;20564;42.902;25.336;2024-01-10T15:12:33;98501.41;;;-3.09;86.61
34297;BME280;20564;42.902;25.336;2024-01-10T15:15:00;98501.63;;;-3.23;86.87
34297;BME280;20564;42.902;25.336;2024-01-10T15:17:28;98500.84;;;-3.30;87.07
34297;BME280;20564;42.902;25.336;2024-01-10T15:19:55;98495.84;;;-3.41;86.79
34297;BME280;20564;42.902;25.336;2024-01-10T15:22:22;98498.56;;;-3.51;88.00
34297;BME280;20564;42.902;25.336;2024-01-10T15:24:49;98506.38;;;-3.54;87.58
34297;BME280;20564;42.902;25.336;2024-01-10T15:27:16;98509.06;;;-3.64;88.07
34297;BME280;20564;42.902;25.336;2024-01-10T15:29:45;98500.50;;;-3.64;87.76
34297;BME280;20564;42.902;25.336;2024-01-10T15:32:22;98493.84;;;-3.82;87.63
34297;BME280;20564;42.902;25.336;2024-01-10T15:34:49;98504.22;;;-3.88;88.08
34297;BME280;20564;42.902;25.336;2024-01-10T15:37:16;98503.44;;;-3.93;88.61
34297;BME280;20564;42.902;25.336;2024-01-10T15:39:43;98504.41;;;-4.02;89.25
34297;BME280;20564;42.902;25.336;2024-01-10T15:42:10;98501.13;;;-4.15;89.35
34297;BME280;20564;42.902;25.336;2024-01-10T15:44:41;98502.13;;;-4.26;89.87
34297;BME280;20564;42.902;25.336;2024-01-10T15:47:09;98502.97;;;-4.29;90.31
34297;BME280;20564;42.902;25.336;2024-01-10T15:49:46;98512.44;;;-4.32;90.44
34297;BME280;20564;42.902;25.336;2024-01-10T15:52:17;98511.72;;;-4.44;91.09
34297;BME280;20564;42.902;25.336;2024-01-10T15:54:46;98519.47;;;-4.50;91.15
34297;BME280;20564;42.902;25.336;2024-01-10T15:57:16;98510.13;;;-4.55;90.84
34297;BME280;20564;42.902;25.336;2024-01-10T15:59:46;98512.75;;;-4.63;91.36
34297;BME280;20564;42.902;25.336;2024-01-10T16:02:17;98517.03;;;-4.62;91.07
34297;BME280;20564;42.902;25.336;2024-01-10T16:04:44;98520.53;;;-4.68;91.64
34297;BME280;20564;42.902;25.336;2024-01-10T16:07:14;98516.34;;;-4.78;91.04
34297;BME280;20564;42.902;25.336;2024-01-10T16:09:44;98520.63;;;-4.83;91.30
34297;BME280;20564;42.902;25.336;2024-01-10T16:12:11;98516.38;;;-4.84;91.40
34297;BME280;20564;42.902;25.336;2024-01-10T16:14:38;98510.47;;;-4.92;91.88
34297;BME280;20564;42.902;25.336;2024-01-10T16:17:05;98521.59;;;-4.95;91.11
34297;BME280;20564;42.902;25.336;2024-01-10T16:22:50;98531.19;;;-5.18;92.90
34297;BME280;20564;42.902;25.336;2024-01-10T16:25:51;98522.66;;;-5.19;92.98
34297;BME280;20564;42.902;25.336;2024-01-10T16:28:24;98526.09;;;-5.23;93.58
34297;BME280;20564;42.902;25.336;2024-01-10T16:34:58;98532.84;;;-5.13;92.98
34297;BME280;20564;42.902;25.336;2024-01-10T16:37:31;98531.28;;;-5.29;93.21
34297;BME280;20564;42.902;25.336;2024-01-10T16:40:26;98538.19;;;-5.43;92.74
34297;BME280;20564;42.902;25.336;2024-01-10T16:43:01;98531.41;;;-5.50;92.72
34297;BME280;20564;42.902;25.336;2024-01-10T16:45:34;98533.09;;;-5.52;93.32
34297;BME280;20564;42.902;25.336;2024-01-10T16:48:32;98532.31;;;-5.62;93.15
34297;BME280;20564;42.902;25.336;2024-01-10T16:51:05;98542.63;;;-5.71;92.87
34297;BME280;20564;42.902;25.336;2024-01-10T16:53:44;98540.09;;;-5.79;93.32
34297;BME280;20564;42.902;25.336;2024-01-10T16:56:23;98546.91;;;-5.78;93.97
34297;BME280;20564;42.902;25.336;2024-01-10T17:02:34;98543.53;;;-5.86;94.89
34297;BME280;20564;42.902;25.336;2024-01-10T17:07:52;98540.16;;;-5.91;94.42
34297;BME280;20564;42.902;25.336;2024-01-10T17:10:34;98546.19;;;-6.00;93.44
34297;BME280;20564;42.902;25.336;2024-01-10T17:13:10;98546.19;;;-6.01;94.31
34297;BME280;20564;42.902;25.336;2024-01-10T17:15:41;98545.34;;;-6.05;93.21
34297;BME280;20564;42.902;25.336;2024-01-10T17:21:41;98539.41;;;-6.15;93.13
34297;BME280;20564;42.902;25.336;2024-01-10T17:24:14;98545.38;;;-6.19;92.12
34297;BME280;20564;42.902;25.336;2024-01-10T17:26:45;98543.69;;;-6.29;93.03
34297;BME280;20564;42.902;25.336;2024-01-10T17:29:14;98552.28;;;-6.39;92.56
34297;BME280;20564;42.902;25.336;2024-01-10T17:32:07;98544.59;;;-6.44;93.29
34297;BME280;20564;42.902;25.336;2024-01-10T17:34:59;98543.75;;;-6.47;93.51
34297;BME280;20564;42.902;25.336;2024-01-10T17:41:49;98550.59;;;-6.59;93.15
34297;BME280;20564;42.902;25.336;2024-01-10T17:44:18;98542.91;;;-6.63;93.61
34297;BME280;20564;42.902;25.336;2024-01-10T17:47:28;98547.19;;;-6.64;94.03
34297;BME280;20564;42.902;25.336;2024-01-10T17:50:27;98546.31;;;-6.58;92.82
34297;BME280;20564;42.902;25.336;2024-01-10T17:53:00;98550.63;;;-6.65;92.93
34297;BME280;20564;42.902;25.336;2024-01-10T17:55:55;98554.03;;;-6.69;92.90
34297;BME280;20564;42.902;25.336;2024-01-10T17:58:33;98542.06;;;-6.67;92.11
34297;BME280;20564;42.902;25.336;2024-01-10T18:04:14;98539.53;;;-6.87;91.17
34297;BME280;20564;42.902;25.336;2024-01-10T18:10:32;98528.44;;;-6.99;91.59
34297;BME280;20564;42.902;25.336;2024-01-10T18:13:48;98524.19;;;-7.11;90.95
34297;BME280;20564;42.902;25.336;2024-01-10T18:16:54;98526.75;;;-7.19;91.05
34297;BME280;20564;42.902;25.336;2024-01-10T18:23:40;98518.19;;;-7.45;92.59
34297;BME280;20564;42.902;25.336;2024-01-10T18:26:08;98520.72;;;-7.42;92.26
34297;BME280;20564;42.902;25.336;2024-01-10T18:28:45;98518.19;;;-7.48;92.15
34297;BME280;20564;42.902;25.336;2024-01-10T18:31:51;98520.72;;;-7.55;91.92
34297;BME280;20564;42.902;25.336;2024-01-10T18:35:35;98514.75;;;-7.57;92.66
34297;BME280;20564;42.902;25.336;2024-01-10T18:41:50;98518.16;;;-7.64;92.98
34297;BME280;20564;42.902;25.336;2024-01-10T18:44:03;98518.97;;;-7.68;92.48
34297;BME280;20564;42.902;25.336;2024-01-10T18:47:05;98510.47;;;-7.62;93.08
34297;BME280;20564;42.902;25.336;2024-01-10T18:49:49;98511.34;;;-7.56;93.03
34297;BME280;20564;42.902;25.336;2024-01-10T18:52:28;98505.38;;;-7.62;93.07
34297;BME280;20564;42.902;25.336;2024-01-10T18:58:54;98505.31;;;-7.81;92.42
34297;BME280;20564;42.902;25.336;2024-01-10T19:04:39;98505.28;;;-8.01;92.77
34297;BME280;20564;42.902;25.336;2024-01-10T19:12:18;98501.84;;;-7.93;93.93
34297;BME280;20564;42.902;25.336;2024-01-10T19:14:56;98502.75;;;-7.84;93.35
34297;BME280;20564;42.902;25.336;2024-01-10T19:18:06;98502.72;;;-7.91;93.23
34297;BME280;20564;42.902;25.336;2024-01-10T19:20:39;98502.75;;;-7.88;93.10
34297;BME280;20564;42.902;25.336;2024-01-10T19:23:16;98497.59;;;-7.97;93.58
34297;BME280;20564;42.902;25.336;2024-01-10T19:26:07;98501.03;;;-7.89;93.86
34297;BME280;20564;42.902;25.336;2024-01-10T19:29:25;98499.31;;;-7.92;91.41
34297;BME280;20564;42.902;25.336;2024-01-10T19:32:15;98505.25;;;-8.04;92.40
34297;BME280;20564;42.902;25.336;2024-01-10T19:35:19;98504.38;;;-8.09;92.54
34297;BME280;20564;42.902;25.336;2024-01-10T19:38:11;98492.47;;;-7.97;93.86
34297;BME280;20564;42.902;25.336;2024-01-10T19:40:54;98490.78;;;-7.95;92.86
34297;BME280;20564;42.902;25.336;2024-01-10T19:44:25;98495.06;;;-7.96;92.45
34297;BME280;20564;42.902;25.336;2024-01-10T19:47:36;98497.63;;;-7.91;93.89
34297;BME280;20564;42.902;25.336;2024-01-10T19:54:11;98490.78;;;-7.95;93.06
34297;BME280;20564;42.902;25.336;2024-01-10T19:57:31;98480.56;;;-7.95;91.61
34297;BME280;20564;42.902;25.336;2024-01-10T20:00:22;98483.97;;;-8.03;92.01
34297;BME280;20564;42.902;25.336;2024-01-10T20:11:28;98480.56;;;-8.08;88.04
34297;BME280;20564;42.902;25.336;2024-01-10T20:17:03;98476.25;;;-8.22;88.85
34297;BME280;20564;42.902;25.336;2024-01-10T20:34:32;98452.38;;;-8.28;90.91
34297;BME280;20564;42.902;25.336;2024-01-10T20:37:24;98453.22;;;-8.33;90.01
